sensor_id;sensor_type;location;lat;lon;timestamp;P1;durP1;ratioP1;P2;durP2;ratioP2
19842;SDS011;10082;51.038;6.992;2022-08-19T00:01:43;17.25;;;15.88;;
19842;SDS011;10082;51.038;6.992;2022-08-19T00:04:13;17.33;;;15.95;;
19842;SDS011;10082;51.038;6.992;2022-08-19T00:06:44;18.58;;;17.17;;
19842;SDS011;10082;51.038;6.992;2022-08-19T00:09:12;20.00;;;18.10;;
19842;SDS011;10082;51.038;6.992;2022-08-19T00:11:42;19.63;;;17.88;;
19842;SDS011;10082;51.038;6.992;2022-08-19T00:14:10;21.92;;;19.67;;
19842;SDS011;10082;51.038;6.992;2022-08-19T00:16:40;19.98;;;18.10;;
19842;SDS011;10082;51.038;6.992;2022-08-19T00:19:08;20.67;;;18.98;;
19842;SDS011;10082;51.038;6.992;2022-08-19T00:21:35;20.27;;;18.35;;
19842;SDS011;10082;51.038;6.992;2022-08-19T00:24:06;19.98;;;18.15;;
19842;SDS011;10082;51.038;6.992;2022-08-19T00:26:34;19.83;;;18.13;;
19842;SDS011;10082;51.038;6.992;2022-08-19T00:29:01;19.23;;;17.73;;
19842;SDS011;10082;51.038;6.992;2022-08-19T00:31:29;19.35;;;17.85;;
19842;SDS011;10082;51.038;6.992;2022-08-19T00:33:56;20.52;;;18.63;;
19842;SDS011;10082;51.038;6.992;2022-08-19T00:36:23;19.90;;;18.13;;
19842;SDS011;10082;51.038;6.992;2022-08-19T00:38:49;19.27;;;17.38;;
19842;SDS011;10082;51.038;6.992;2022-08-19T00:41:19;17.98;;;16.38;;
19842;SDS011;10082;51.038;6.992;2022-08-19T00:43:58;20.35;;;18.75;;
19842;SDS011;10082;51.038;6.992;2022-08-19T00:46:27;19.70;;;17.80;;
19842;SDS011;10082;51.038;6.992;2022-08-19T00:48:54;20.08;;;18.38;;
19842;SDS011;10082;51.038;6.992;2022-08-19T00:51:22;20.38;;;18.20;;
19842;SDS011;10082;51.038;6.992;2022-08-19T00:53:51;22.55;;;20.55;;
19842;SDS011;10082;51.038;6.992;2022-08-19T00:56:20;21.10;;;19.05;;
19842;SDS011;10082;51.038;6.992;2022-08-19T00:58:47;22.38;;;20.48;;
19842;SDS011;10082;51.038;6.992;2022-08-19T01:01:14;21.92;;;19.92;;
19842;SDS011;10082;51.038;6.992;2022-08-19T01:03:41;22.65;;;20.55;;
19842;SDS011;10082;51.038;6.992;2022-08-19T01:06:08;20.13;;;18.20;;
19842;SDS011;10082;51.038;6.992;2022-08-19T01:08:34;22.98;;;20.88;;
19842;SDS011;10082;51.038;6.992;2022-08-19T01:11:01;22.15;;;20.40;;
19842;SDS011;10082;51.038;6.992;2022-08-19T01:13:33;21.45;;;19.55;;
19842;SDS011;10082;51.038;6.992;2022-08-19T01:16:03;21.48;;;19.77;;
19842;SDS011;10082;51.038;6.992;2022-08-19T01:18:32;21.38;;;19.58;;
19842;SDS011;10082;51.038;6.992;2022-08-19T01:21:05;21.42;;;19.50;;
19842;SDS011;10082;51.038;6.992;2022-08-19T01:23:37;20.98;;;19.20;;
19842;SDS011;10082;51.038;6.992;2022-08-19T01:26:11;21.90;;;20.17;;
19842;SDS011;10082;51.038;6.992;2022-08-19T01:28:40;21.27;;;19.48;;
19842;SDS011;10082;51.038;6.992;2022-08-19T01:31:08;21.95;;;20.23;;
19842;SDS011;10082;51.038;6.992;2022-08-19T01:33:40;20.02;;;18.42;;
19842;SDS011;10082;51.038;6.992;2022-08-19T01:36:08;21.98;;;20.17;;
19842;SDS011;10082;51.038;6.992;2022-08-19T01:38:39;22.98;;;20.88;;
19842;SDS011;10082;51.038;6.992;2022-08-19T01:41:08;22.52;;;20.45;;
19842;SDS011;10082;51.038;6.992;2022-08-19T01:43:36;23.80;;;21.92;;
19842;SDS011;10082;51.038;6.992;2022-08-19T01:46:03;23.40;;;21.30;;
19842;SDS011;10082;51.038;6.992;2022-08-19T01:48:34;23.42;;;21.58;;
19842;SDS011;10082;51.038;6.992;2022-08-19T01:51:02;22.35;;;20.40;;
19842;SDS011;10082;51.038;6.992;2022-08-19T01:53:29;23.15;;;21.25;;
19842;SDS011;10082;51.038;6.992;2022-08-19T01:55:57;22.67;;;20.88;;
19842;SDS011;10082;51.038;6.992;2022-08-19T01:58:27;22.33;;;20.52;;
19842;SDS011;10082;51.038;6.992;2022-08-19T02:00:58;24.08;;;22.17;;
19842;SDS011;10082;51.038;6.992;2022-08-19T02:03:25;24.02;;;22.02;;
19842;SDS011;10082;51.038;6.992;2022-08-19T02:05:55;23.35;;;21.42;;
19842;SDS011;10082;51.038;6.992;2022-08-19T02:08:24;24.17;;;22.05;;
19842;SDS011;10082;51.038;6.992;2022-08-19T02:10:52;25.38;;;23.10;;
19842;SDS011;10082;51.038;6.992;2022-08-19T02:13:21;24.42;;;22.15;;
19842;SDS011;10082;51.038;6.992;2022-08-19T02:15:49;23.45;;;21.45;;
19842;SDS011;10082;51.038;6.992;2022-08-19T02:18:16;23.63;;;21.63;;
19842;SDS011;10082;51.038;6.992;2022-08-19T02:20:43;23.70;;;21.70;;
19842;SDS011;10082;51.038;6.992;2022-08-19T02:23:12;22.73;;;20.83;;
19842;SDS011;10082;51.038;6.992;2022-08-19T02:25:39;23.15;;;21.35;;
19842;SDS011;10082;51.038;6.992;2022-08-19T02:28:07;22.65;;;20.75;;
19842;SDS011;10082;51.038;6.992;2022-08-19T02:30:35;23.48;;;21.48;;
19842;SDS011;10082;51.038;6.992;2022-08-19T02:33:03;22.95;;;21.15;;
19842;SDS011;10082;51.038;6.992;2022-08-19T02:35:30;23.67;;;21.67;;
19842;SDS011;10082;51.038;6.992;2022-08-19T02:37:57;22.90;;;21.10;;
19842;SDS011;10082;51.038;6.992;2022-08-19T02:40:47;21.83;;;20.02;;
19842;SDS011;10082;51.038;6.992;2022-08-19T02:43:16;23.80;;;21.77;;
19842;SDS011;10082;51.038;6.992;2022-08-19T02:45:46;23.83;;;21.83;;
19842;SDS011;10082;51.038;6.992;2022-08-19T02:48:14;23.58;;;21.58;;
19842;SDS011;10082;51.038;6.992;2022-08-19T02:50:42;24.60;;;22.50;;
19842;SDS011;10082;51.038;6.992;2022-08-19T02:53:09;22.95;;;20.65;;
19842;SDS011;10082;51.038;6.992;2022-08-19T02:55:36;23.70;;;21.55;;
19842;SDS011;10082;51.038;6.992;2022-08-19T02:58:09;24.17;;;21.85;;
19842;SDS011;10082;51.038;6.992;2022-08-19T03:00:36;24.25;;;22.15;;
19842;SDS011;10082;51.038;6.992;2022-08-19T03:03:10;22.42;;;20.52;;
19842;SDS011;10082;51.038;6.992;2022-08-19T03:05:37;23.85;;;21.80;;
19842;SDS011;10082;51.038;6.992;2022-08-19T03:08:04;22.65;;;20.85;;
19842;SDS011;10082;51.038;6.992;2022-08-19T03:10:31;22.75;;;20.92;;
19842;SDS011;10082;51.038;6.992;2022-08-19T03:12:58;24.73;;;22.60;;
19842;SDS011;10082;51.038;6.992;2022-08-19T03:15:25;25.60;;;23.35;;
19842;SDS011;10082;51.038;6.992;2022-08-19T03:17:52;24.48;;;22.35;;
19842;SDS011;10082;51.038;6.992;2022-08-19T03:20:20;24.52;;;22.42;;
19842;SDS011;10082;51.038;6.992;2022-08-19T03:22:47;25.05;;;22.70;;
19842;SDS011;10082;51.038;6.992;2022-08-19T03:25:14;22.05;;;20.08;;
19842;SDS011;10082;51.038;6.992;2022-08-19T03:27:41;22.10;;;19.05;;
19842;SDS011;10082;51.038;6.992;2022-08-19T03:30:09;23.23;;;21.05;;
19842;SDS011;10082;51.038;6.992;2022-08-19T03:32:36;21.48;;;19.67;;
19842;SDS011;10082;51.038;6.992;2022-08-19T03:35:03;23.33;;;21.45;;
19842;SDS011;10082;51.038;6.992;2022-08-19T03:37:32;21.98;;;19.63;;
19842;SDS011;10082;51.038;6.992;2022-08-19T03:39:59;24.38;;;22.20;;
19842;SDS011;10082;51.038;6.992;2022-08-19T03:42:28;22.88;;;20.42;;
19842;SDS011;10082;51.038;6.992;2022-08-19T03:44:55;23.80;;;21.70;;
19842;SDS011;10082;51.038;6.992;2022-08-19T03:47:23;21.05;;;19.05;;
19842;SDS011;10082;51.038;6.992;2022-08-19T03:49:50;23.90;;;21.73;;
19842;SDS011;10082;51.038;6.992;2022-08-19T03:52:17;21.45;;;19.42;;
19842;SDS011;10082;51.038;6.992;2022-08-19T03:54:45;23.67;;;21.50;;
19842;SDS011;10082;51.038;6.992;2022-08-19T03:57:12;25.00;;;22.40;;
19842;SDS011;10082;51.038;6.992;2022-08-19T03:59:39;22.65;;;20.50;;
19842;SDS011;10082;51.038;6.992;2022-08-19T04:02:07;22.98;;;20.70;;
19842;SDS011;10082;51.038;6.992;2022-08-19T04:04:36;21.77;;;19.58;;
19842;SDS011;10082;51.038;6.992;2022-08-19T04:07:03;24.45;;;22.35;;
19842;SDS011;10082;51.038;6.992;2022-08-19T04:09:30;22.90;;;21.00;;
19842;SDS011;10082;51.038;6.992;2022-08-19T04:11:58;22.27;;;20.27;;
19842;SDS011;10082;51.038;6.992;2022-08-19T04:14:26;21.10;;;19.20;;
19842;SDS011;10082;51.038;6.992;2022-08-19T04:16:57;25.65;;;23.33;;
19842;SDS011;10082;51.038;6.992;2022-08-19T04:19:24;22.83;;;20.63;;
19842;SDS011;10082;51.038;6.992;2022-08-19T04:21:52;23.90;;;21.85;;
19842;SDS011;10082;51.038;6.992;2022-08-19T04:24:20;23.88;;;21.80;;
19842;SDS011;10082;51.038;6.992;2022-08-19T04:26:48;23.92;;;21.73;;
19842;SDS011;10082;51.038;6.992;2022-08-19T04:29:18;23.80;;;21.63;;
19842;SDS011;10082;51.038;6.992;2022-08-19T04:31:46;20.80;;;18.90;;
19842;SDS011;10082;51.038;6.992;2022-08-19T04:34:13;21.77;;;19.67;;
19842;SDS011;10082;51.038;6.992;2022-08-19T04:36:42;22.95;;;20.73;;
19842;SDS011;10082;51.038;6.992;2022-08-19T04:39:12;21.65;;;19.42;;
19842;SDS011;10082;51.038;6.992;2022-08-19T04:41:40;21.35;;;19.17;;
19842;SDS011;10082;51.038;6.992;2022-08-19T04:44:26;23.38;;;21.38;;
19842;SDS011;10082;51.038;6.992;2022-08-19T04:46:55;23.67;;;21.65;;
19842;SDS011;10082;51.038;6.992;2022-08-19T04:49:23;22.63;;;20.73;;
19842;SDS011;10082;51.038;6.992;2022-08-19T04:51:51;21.60;;;19.55;;
19842;SDS011;10082;51.038;6.992;2022-08-19T04:54:19;20.83;;;18.92;;
19842;SDS011;10082;51.038;6.992;2022-08-19T04:56:47;22.40;;;20.50;;
19842;SDS011;10082;51.038;6.992;2022-08-19T04:59:15;21.13;;;19.23;;
19842;SDS011;10082;51.038;6.992;2022-08-19T05:01:43;21.65;;;19.67;;
19842;SDS011;10082;51.038;6.992;2022-08-19T05:04:15;22.75;;;20.65;;
19842;SDS011;10082;51.038;6.992;2022-08-19T05:06:44;22.65;;;20.48;;
19842;SDS011;10082;51.038;6.992;2022-08-19T05:09:12;22.75;;;20.70;;
19842;SDS011;10082;51.038;6.992;2022-08-19T05:11:39;24.33;;;22.33;;
19842;SDS011;10082;51.038;6.992;2022-08-19T05:14:06;23.48;;;21.55;;
19842;SDS011;10082;51.038;6.992;2022-08-19T05:16:33;20.80;;;18.85;;
19842;SDS011;10082;51.038;6.992;2022-08-19T05:19:02;21.02;;;19.02;;
19842;SDS011;10082;51.038;6.992;2022-08-19T05:21:46;22.15;;;20.02;;
19842;SDS011;10082;51.038;6.992;2022-08-19T05:24:30;21.80;;;19.70;;
19842;SDS011;10082;51.038;6.992;2022-08-19T05:26:59;30.77;;;27.70;;
19842;SDS011;10082;51.038;6.992;2022-08-19T05:29:28;26.00;;;23.55;;
19842;SDS011;10082;51.038;6.992;2022-08-19T05:31:56;27.80;;;24.92;;
19842;SDS011;10082;51.038;6.992;2022-08-19T05:34:26;32.05;;;28.45;;
19842;SDS011;10082;51.038;6.992;2022-08-19T05:36:54;39.97;;;32.55;;
19842;SDS011;10082;51.038;6.992;2022-08-19T05:39:23;41.72;;;36.92;;
19842;SDS011;10082;51.038;6.992;2022-08-19T05:41:52;41.45;;;37.03;;
19842;SDS011;10082;51.038;6.992;2022-08-19T05:44:22;50.88;;;41.38;;
19842;SDS011;10082;51.038;6.992;2022-08-19T05:46:50;45.28;;;40.55;;
19842;SDS011;10082;51.038;6.992;2022-08-19T05:49:19;51.45;;;42.03;;
19842;SDS011;10082;51.038;6.992;2022-08-19T05:51:48;52.90;;;46.50;;
19842;SDS011;10082;51.038;6.992;2022-08-19T05:54:15;49.67;;;44.47;;
19842;SDS011;10082;51.038;6.992;2022-08-19T05:56:43;53.03;;;45.72;;
19842;SDS011;10082;51.038;6.992;2022-08-19T05:59:12;52.15;;;46.58;;
19842;SDS011;10082;51.038;6.992;2022-08-19T06:01:41;49.25;;;44.00;;
19842;SDS011;10082;51.038;6.992;2022-08-19T06:04:09;52.20;;;46.03;;
19842;SDS011;10082;51.038;6.992;2022-08-19T06:06:37;52.50;;;45.40;;
19842;SDS011;10082;51.038;6.992;2022-08-19T06:09:05;50.47;;;45.08;;
19842;SDS011;10082;51.038;6.992;2022-08-19T06:11:35;49.33;;;43.97;;
19842;SDS011;10082;51.038;6.992;2022-08-19T06:14:05;50.78;;;45.25;;
19842;SDS011;10082;51.038;6.992;2022-08-19T06:16:34;49.33;;;43.72;;
19842;SDS011;10082;51.038;6.992;2022-08-19T06:19:02;51.30;;;44.85;;
19842;SDS011;10082;51.038;6.992;2022-08-19T06:21:31;52.47;;;44.97;;
19842;SDS011;10082;51.038;6.992;2022-08-19T06:23:58;50.47;;;45.08;;
19842;SDS011;10082;51.038;6.992;2022-08-19T06:26:27;50.75;;;45.28;;
19842;SDS011;10082;51.038;6.992;2022-08-19T06:28:53;48.45;;;43.30;;
19842;SDS011;10082;51.038;6.992;2022-08-19T06:31:22;51.35;;;45.85;;
19842;SDS011;10082;51.038;6.992;2022-08-19T06:33:51;49.42;;;44.40;;
19842;SDS011;10082;51.038;6.992;2022-08-19T06:36:19;50.13;;;44.90;;
19842;SDS011;10082;51.038;6.992;2022-08-19T06:38:47;46.72;;;42.13;;
19842;SDS011;10082;51.038;6.992;2022-08-19T06:41:13;43.75;;;39.38;;
19842;SDS011;10082;51.038;6.992;2022-08-19T06:43:42;47.65;;;43.10;;
19842;SDS011;10082;51.038;6.992;2022-08-19T06:46:09;44.05;;;40.05;;
19842;SDS011;10082;51.038;6.992;2022-08-19T06:48:38;43.63;;;39.45;;
19842;SDS011;10082;51.038;6.992;2022-08-19T06:51:05;43.97;;;39.97;;
19842;SDS011;10082;51.038;6.992;2022-08-19T06:53:32;44.00;;;39.75;;
19842;SDS011;10082;51.038;6.992;2022-08-19T06:55:59;43.15;;;39.08;;
19842;SDS011;10082;51.038;6.992;2022-08-19T06:58:27;41.10;;;37.30;;
19842;SDS011;10082;51.038;6.992;2022-08-19T07:00:58;42.33;;;38.25;;
19842;SDS011;10082;51.038;6.992;2022-08-19T07:03:27;43.08;;;38.88;;
19842;SDS011;10082;51.038;6.992;2022-08-19T07:05:56;41.70;;;37.88;;
19842;SDS011;10082;51.038;6.992;2022-08-19T07:08:24;41.17;;;37.25;;
19842;SDS011;10082;51.038;6.992;2022-08-19T07:10:52;40.33;;;36.45;;
19842;SDS011;10082;51.038;6.992;2022-08-19T07:13:19;41.10;;;37.15;;
19842;SDS011;10082;51.038;6.992;2022-08-19T07:15:47;40.83;;;36.92;;
19842;SDS011;10082;51.038;6.992;2022-08-19T07:18:17;38.15;;;34.45;;
19842;SDS011;10082;51.038;6.992;2022-08-19T07:20:44;38.00;;;34.33;;
19842;SDS011;10082;51.038;6.992;2022-08-19T07:23:11;38.72;;;35.13;;
19842;SDS011;10082;51.038;6.992;2022-08-19T07:25:38;39.65;;;35.95;;
19842;SDS011;10082;51.038;6.992;2022-08-19T07:28:05;37.72;;;34.13;;
19842;SDS011;10082;51.038;6.992;2022-08-19T07:30:32;38.33;;;34.75;;
19842;SDS011;10082;51.038;6.992;2022-08-19T07:33:01;41.53;;;37.42;;
19842;SDS011;10082;51.038;6.992;2022-08-19T07:35:30;38.58;;;34.58;;
19842;SDS011;10082;51.038;6.992;2022-08-19T07:37:57;37.20;;;33.30;;
19842;SDS011;10082;51.038;6.992;2022-08-19T07:40:24;35.50;;;31.92;;
19842;SDS011;10082;51.038;6.992;2022-08-19T07:42:51;37.47;;;33.80;;
19842;SDS011;10082;51.038;6.992;2022-08-19T07:45:17;36.63;;;33.08;;
19842;SDS011;10082;51.038;6.992;2022-08-19T07:47:44;36.92;;;33.05;;
19842;SDS011;10082;51.038;6.992;2022-08-19T07:50:11;36.65;;;31.98;;
19842;SDS011;10082;51.038;6.992;2022-08-19T07:52:39;35.42;;;31.60;;
19842;SDS011;10082;51.038;6.992;2022-08-19T07:55:08;34.33;;;30.92;;
19842;SDS011;10082;51.038;6.992;2022-08-19T07:57:35;37.63;;;32.65;;
19842;SDS011;10082;51.038;6.992;2022-08-19T08:00:04;33.13;;;29.35;;
19842;SDS011;10082;51.038;6.992;2022-08-19T08:02:37;36.60;;;32.80;;
19842;SDS011;10082;51.038;6.992;2022-08-19T08:05:04;35.58;;;31.45;;
19842;SDS011;10082;51.038;6.992;2022-08-19T08:07:50;37.38;;;33.42;;
19842;SDS011;10082;51.038;6.992;2022-08-19T08:10:34;36.72;;;33.00;;
19842;SDS011;10082;51.038;6.992;2022-08-19T08:13:01;38.50;;;34.42;;
19842;SDS011;10082;51.038;6.992;2022-08-19T08:15:30;39.03;;;34.95;;
19842;SDS011;10082;51.038;6.992;2022-08-19T08:17:57;39.45;;;35.13;;
19842;SDS011;10082;51.038;6.992;2022-08-19T08:20:23;38.30;;;34.28;;
19842;SDS011;10082;51.038;6.992;2022-08-19T08:22:52;39.22;;;35.00;;
19842;SDS011;10082;51.038;6.992;2022-08-19T08:25:36;38.97;;;34.78;;
19842;SDS011;10082;51.038;6.992;2022-08-19T08:28:03;38.03;;;34.17;;
19842;SDS011;10082;51.038;6.992;2022-08-19T08:30:30;36.70;;;32.97;;
19842;SDS011;10082;51.038;6.992;2022-08-19T08:32:58;41.90;;;37.65;;
19842;SDS011;10082;51.038;6.992;2022-08-19T08:35:25;40.90;;;36.60;;
19842;SDS011;10082;51.038;6.992;2022-08-19T08:37:53;41.70;;;37.63;;
19842;SDS011;10082;51.038;6.992;2022-08-19T08:40:22;41.00;;;36.90;;
19842;SDS011;10082;51.038;6.992;2022-08-19T08:42:57;41.35;;;37.17;;
19842;SDS011;10082;51.038;6.992;2022-08-19T08:45:30;41.92;;;37.67;;
19842;SDS011;10082;51.038;6.992;2022-08-19T08:48:00;42.53;;;38.13;;
19842;SDS011;10082;51.038;6.992;2022-08-19T08:50:31;41.28;;;37.13;;
19842;SDS011;10082;51.038;6.992;2022-08-19T08:53:03;39.85;;;35.95;;
19842;SDS011;10082;51.038;6.992;2022-08-19T08:55:33;40.25;;;36.13;;
19842;SDS011;10082;51.038;6.992;2022-08-19T08:58:00;39.22;;;35.45;;
19842;SDS011;10082;51.038;6.992;2022-08-19T09:00:31;41.88;;;37.83;;
19842;SDS011;10082;51.038;6.992;2022-08-19T09:03:01;41.25;;;37.10;;
19842;SDS011;10082;51.038;6.992;2022-08-19T09:05:33;43.25;;;38.72;;
19842;SDS011;10082;51.038;6.992;2022-08-19T09:08:18;39.70;;;36.03;;
19842;SDS011;10082;51.038;6.992;2022-08-19T09:10:54;39.40;;;35.25;;
19842;SDS011;10082;51.038;6.992;2022-08-19T09:13:24;43.08;;;38.72;;
19842;SDS011;10082;51.038;6.992;2022-08-19T09:16:00;42.95;;;38.65;;
19842;SDS011;10082;51.038;6.992;2022-08-19T09:18:38;42.05;;;37.88;;
19842;SDS011;10082;51.038;6.992;2022-08-19T09:21:06;42.60;;;38.22;;
19842;SDS011;10082;51.038;6.992;2022-08-19T09:23:35;45.22;;;40.53;;
19842;SDS011;10082;51.038;6.992;2022-08-19T09:26:06;44.03;;;39.53;;
19842;SDS011;10082;51.038;6.992;2022-08-19T09:28:33;42.20;;;37.70;;
19842;SDS011;10082;51.038;6.992;2022-08-19T09:31:02;43.55;;;39.22;;
19842;SDS011;10082;51.038;6.992;2022-08-19T09:33:29;40.08;;;35.90;;
19842;SDS011;10082;51.038;6.992;2022-08-19T09:36:03;39.75;;;35.80;;
19842;SDS011;10082;51.038;6.992;2022-08-19T09:38:32;36.58;;;32.90;;
19842;SDS011;10082;51.038;6.992;2022-08-19T09:41:03;37.20;;;33.42;;
19842;SDS011;10082;51.038;6.992;2022-08-19T09:43:31;39.55;;;35.45;;
19842;SDS011;10082;51.038;6.992;2022-08-19T09:46:13;36.55;;;32.85;;
19842;SDS011;10082;51.038;6.992;2022-08-19T09:48:42;36.97;;;33.30;;
19842;SDS011;10082;51.038;6.992;2022-08-19T09:51:10;35.20;;;31.50;;
19842;SDS011;10082;51.038;6.992;2022-08-19T09:53:41;34.72;;;31.15;;
19842;SDS011;10082;51.038;6.992;2022-08-19T09:56:08;33.33;;;30.05;;
19842;SDS011;10082;51.038;6.992;2022-08-19T09:58:36;30.95;;;27.90;;
19842;SDS011;10082;51.038;6.992;2022-08-19T10:01:03;30.05;;;27.25;;
19842;SDS011;10082;51.038;6.992;2022-08-19T10:03:33;33.67;;;30.30;;
19842;SDS011;10082;51.038;6.992;2022-08-19T10:06:03;28.75;;;25.95;;
19842;SDS011;10082;51.038;6.992;2022-08-19T10:08:33;30.25;;;27.23;;
19842;SDS011;10082;51.038;6.992;2022-08-19T10:11:02;26.70;;;24.20;;
19842;SDS011;10082;51.038;6.992;2022-08-19T10:13:30;25.58;;;23.02;;
19842;SDS011;10082;51.038;6.992;2022-08-19T10:16:03;21.13;;;19.13;;
19842;SDS011;10082;51.038;6.992;2022-08-19T10:18:34;23.00;;;20.70;;
19842;SDS011;10082;51.038;6.992;2022-08-19T10:21:03;23.17;;;21.13;;
19842;SDS011;10082;51.038;6.992;2022-08-19T10:23:34;21.15;;;19.25;;
19842;SDS011;10082;51.038;6.992;2022-08-19T10:26:01;22.30;;;20.17;;
19842;SDS011;10082;51.038;6.992;2022-08-19T10:28:29;24.05;;;21.33;;
19842;SDS011;10082;51.038;6.992;2022-08-19T10:30:56;23.60;;;21.30;;
19842;SDS011;10082;51.038;6.992;2022-08-19T10:33:22;25.17;;;22.83;;
19842;SDS011;10082;51.038;6.992;2022-08-19T10:35:57;25.60;;;23.48;;
19842;SDS011;10082;51.038;6.992;2022-08-19T10:38:25;26.15;;;23.80;;
19842;SDS011;10082;51.038;6.992;2022-08-19T10:40:53;25.17;;;22.48;;
19842;SDS011;10082;51.038;6.992;2022-08-19T10:43:20;23.85;;;21.67;;
19842;SDS011;10082;51.038;6.992;2022-08-19T10:45:48;24.25;;;21.95;;
19842;SDS011;10082;51.038;6.992;2022-08-19T10:48:18;22.60;;;20.60;;
19842;SDS011;10082;51.038;6.992;2022-08-19T10:50:45;23.17;;;20.98;;
19842;SDS011;10082;51.038;6.992;2022-08-19T10:53:31;18.83;;;17.13;;
19842;SDS011;10082;51.038;6.992;2022-08-19T10:55:57;19.85;;;18.02;;
19842;SDS011;10082;51.038;6.992;2022-08-19T10:58:41;19.25;;;17.45;;
19842;SDS011;10082;51.038;6.992;2022-08-19T11:01:09;18.05;;;16.45;;
19842;SDS011;10082;51.038;6.992;2022-08-19T11:03:36;17.33;;;15.77;;
19842;SDS011;10082;51.038;6.992;2022-08-19T11:06:04;16.52;;;14.88;;
19842;SDS011;10082;51.038;6.992;2022-08-19T11:08:35;14.93;;;13.43;;
19842;SDS011;10082;51.038;6.992;2022-08-19T11:11:03;15.45;;;14.02;;
19842;SDS011;10082;51.038;6.992;2022-08-19T11:13:32;17.33;;;15.70;;
19842;SDS011;10082;51.038;6.992;2022-08-19T11:16:05;21.15;;;18.95;;
19842;SDS011;10082;51.038;6.992;2022-08-19T11:18:34;16.70;;;15.13;;
19842;SDS011;10082;51.038;6.992;2022-08-19T11:21:06;19.95;;;15.98;;
19842;SDS011;10082;51.038;6.992;2022-08-19T11:23:39;16.88;;;15.40;;
19842;SDS011;10082;51.038;6.992;2022-08-19T11:26:06;18.13;;;16.45;;
19842;SDS011;10082;51.038;6.992;2022-08-19T11:28:33;16.23;;;14.77;;
19842;SDS011;10082;51.038;6.992;2022-08-19T11:31:00;16.52;;;14.82;;
19842;SDS011;10082;51.038;6.992;2022-08-19T11:33:28;16.48;;;15.07;;
19842;SDS011;10082;51.038;6.992;2022-08-19T11:35:56;16.75;;;15.27;;
19842;SDS011;10082;51.038;6.992;2022-08-19T11:38:23;18.08;;;16.40;;
19842;SDS011;10082;51.038;6.992;2022-08-19T11:40:55;16.38;;;14.75;;
19842;SDS011;10082;51.038;6.992;2022-08-19T11:43:23;14.07;;;12.77;;
19842;SDS011;10082;51.038;6.992;2022-08-19T11:45:51;14.93;;;13.55;;
19842;SDS011;10082;51.038;6.992;2022-08-19T11:48:18;16.63;;;15.25;;
19842;SDS011;10082;51.038;6.992;2022-08-19T11:50:47;18.08;;;16.38;;
19842;SDS011;10082;51.038;6.992;2022-08-19T11:53:14;14.52;;;13.23;;
19842;SDS011;10082;51.038;6.992;2022-08-19T11:55:41;14.80;;;13.43;;
19842;SDS011;10082;51.038;6.992;2022-08-19T11:58:09;15.32;;;14.02;;
19842;SDS011;10082;51.038;6.992;2022-08-19T12:00:36;16.00;;;14.68;;
19842;SDS011;10082;51.038;6.992;2022-08-19T12:03:03;15.73;;;14.35;;
19842;SDS011;10082;51.038;6.992;2022-08-19T12:05:30;14.55;;;13.15;;
19842;SDS011;10082;51.038;6.992;2022-08-19T12:07:57;13.52;;;12.32;;
19842;SDS011;10082;51.038;6.992;2022-08-19T12:10:24;12.60;;;11.50;;
19842;SDS011;10082;51.038;6.992;2022-08-19T12:12:51;14.20;;;13.10;;
19842;SDS011;10082;51.038;6.992;2022-08-19T12:15:19;13.52;;;12.43;;
19842;SDS011;10082;51.038;6.992;2022-08-19T12:17:46;12.90;;;11.65;;
19842;SDS011;10082;51.038;6.992;2022-08-19T12:20:13;12.48;;;11.40;;
19842;SDS011;10082;51.038;6.992;2022-08-19T12:22:42;10.88;;;9.98;;
19842;SDS011;10082;51.038;6.992;2022-08-19T12:25:09;11.23;;;10.32;;
19842;SDS011;10082;51.038;6.992;2022-08-19T12:27:37;12.20;;;11.30;;
19842;SDS011;10082;51.038;6.992;2022-08-19T12:30:05;9.88;;;9.18;;
19842;SDS011;10082;51.038;6.992;2022-08-19T12:32:36;9.60;;;8.90;;
19842;SDS011;10082;51.038;6.992;2022-08-19T12:35:03;10.75;;;9.85;;
19842;SDS011;10082;51.038;6.992;2022-08-19T12:37:30;10.40;;;9.40;;
19842;SDS011;10082;51.038;6.992;2022-08-19T12:39:57;10.77;;;9.77;;
19842;SDS011;10082;51.038;6.992;2022-08-19T12:42:24;10.80;;;9.90;;
19842;SDS011;10082;51.038;6.992;2022-08-19T12:44:51;10.80;;;9.75;;
19842;SDS011;10082;51.038;6.992;2022-08-19T12:47:18;11.60;;;10.55;;
19842;SDS011;10082;51.038;6.992;2022-08-19T12:49:47;10.68;;;9.65;;
19842;SDS011;10082;51.038;6.992;2022-08-19T12:52:14;9.52;;;8.60;;
19842;SDS011;10082;51.038;6.992;2022-08-19T12:54:41;9.43;;;8.45;;
19842;SDS011;10082;51.038;6.992;2022-08-19T12:57:09;9.27;;;8.57;;
19842;SDS011;10082;51.038;6.992;2022-08-19T12:59:37;10.55;;;9.52;;
19842;SDS011;10082;51.038;6.992;2022-08-19T13:02:04;10.65;;;9.63;;
19842;SDS011;10082;51.038;6.992;2022-08-19T13:04:32;10.50;;;9.40;;
19842;SDS011;10082;51.038;6.992;2022-08-19T13:07:02;10.77;;;9.73;;
19842;SDS011;10082;51.038;6.992;2022-08-19T13:09:29;12.57;;;8.75;;
19842;SDS011;10082;51.038;6.992;2022-08-19T13:11:56;9.93;;;8.90;;
19842;SDS011;10082;51.038;6.992;2022-08-19T13:14:23;10.20;;;9.30;;
19842;SDS011;10082;51.038;6.992;2022-08-19T13:16:50;8.93;;;8.13;;
19842;SDS011;10082;51.038;6.992;2022-08-19T13:19:16;11.35;;;10.20;;
19842;SDS011;10082;51.038;6.992;2022-08-19T13:21:48;9.07;;;8.27;;
19842;SDS011;10082;51.038;6.992;2022-08-19T13:24:17;9.60;;;8.73;;
19842;SDS011;10082;51.038;6.992;2022-08-19T13:26:44;10.57;;;9.60;;
19842;SDS011;10082;51.038;6.992;2022-08-19T13:29:10;9.90;;;8.98;;
19842;SDS011;10082;51.038;6.992;2022-08-19T13:31:54;11.07;;;9.93;;
19842;SDS011;10082;51.038;6.992;2022-08-19T13:34:41;10.55;;;9.60;;
19842;SDS011;10082;51.038;6.992;2022-08-19T13:37:08;10.38;;;9.40;;
19842;SDS011;10082;51.038;6.992;2022-08-19T13:39:36;10.50;;;9.50;;
19842;SDS011;10082;51.038;6.992;2022-08-19T13:42:02;9.10;;;8.25;;
19842;SDS011;10082;51.038;6.992;2022-08-19T13:44:31;8.82;;;8.02;;
19842;SDS011;10082;51.038;6.992;2022-08-19T13:46:59;9.13;;;7.97;;
19842;SDS011;10082;51.038;6.992;2022-08-19T13:49:27;9.07;;;7.15;;
19842;SDS011;10082;51.038;6.992;2022-08-19T13:51:56;9.38;;;8.45;;
19842;SDS011;10082;51.038;6.992;2022-08-19T13:54:22;8.00;;;7.30;;
19842;SDS011;10082;51.038;6.992;2022-08-19T13:56:50;8.80;;;8.00;;
19842;SDS011;10082;51.038;6.992;2022-08-19T13:59:17;7.70;;;7.05;;
19842;SDS011;10082;51.038;6.992;2022-08-19T14:01:44;7.60;;;7.00;;
19842;SDS011;10082;51.038;6.992;2022-08-19T14:04:11;7.75;;;7.05;;
19842;SDS011;10082;51.038;6.992;2022-08-19T14:06:37;6.60;;;6.00;;
19842;SDS011;10082;51.038;6.992;2022-08-19T14:09:04;6.28;;;5.40;;
19842;SDS011;10082;51.038;6.992;2022-08-19T14:11:31;8.45;;;5.47;;
19842;SDS011;10082;51.038;6.992;2022-08-19T14:13:59;6.35;;;5.70;;
19842;SDS011;10082;51.038;6.992;2022-08-19T14:16:25;6.40;;;5.78;;
19842;SDS011;10082;51.038;6.992;2022-08-19T14:18:52;6.45;;;5.95;;
19842;SDS011;10082;51.038;6.992;2022-08-19T14:21:20;8.35;;;7.10;;
19842;SDS011;10082;51.038;6.992;2022-08-19T14:23:48;7.32;;;6.63;;
19842;SDS011;10082;51.038;6.992;2022-08-19T14:26:16;7.00;;;6.30;;
19842;SDS011;10082;51.038;6.992;2022-08-19T14:28:44;6.97;;;6.38;;
19842;SDS011;10082;51.038;6.992;2022-08-19T14:31:13;6.38;;;5.78;;
19842;SDS011;10082;51.038;6.992;2022-08-19T14:33:43;7.72;;;6.25;;